LYBE/BEG METAR and TAF weather

Enter ICAO airport designator
Station Type Date Time Source
LYBE METAR 2019/06/16 12:30 UTC NOAA

LYBE 161230Z 07007KT 010V100 CAVOK 33/18 Q1011 NOSIG


Station Type Date Time Source
LYBE Decoded METAR 2019/06/16 12:30 UTC NOAA

Beograd / Surcin, Serbia and Montenegro (LYBE) 44-49N 020-17E 99M
Jun 16, 2019 - 08:30 AM EDT / 2019.06.16 1230 UTC
Wind: from the ENE (070 degrees) at 8 MPH (7 KT) (direction variable):0
Visibility: greater than 7 mile(s):0
Temperature: 91 F (33 C)
Dew Point: 64 F (18 C)
Relative Humidity: 41%
Pressure (altimeter): 29.85 in. Hg (1011 hPa)
ob: LYBE 161230Z 07007KT 010V100 CAVOK 33/18 Q1011 NOSIG
cycle: 12

Station Type Date Time Source
LYBE TAF 2019/06/16 12:21 UTC NOAA

TAF LYBE 161100Z 1612/1712 12009KT CAVOK TX34/1613Z TN18/1703Z
TEMPO 1618/1621 5000 TSRA SCT030CB BKN033
BECMG 1701/1703 35010KT
TEMPO 1702/1709 35015G25KT 3000 TSRA SCT030CB BKN033

Example: see airport list